Time;durP1;ratioP1;P1;durP2;ratioP2;P2;SDS_P1;SDS_P2;PMS_P1;PMS_P2;Temp;Humidity;BMP_temperature;BMP_pressure;BME280_temperature;BME280_humidity;BME280_pressure;Samples;Min_cycle;Max_cycle;Signal;HPM_P1;HPM_P2
2024/03/19 00:01:44;;;;;;;10.10;4.40;;;10.40;99.90;;;;;;5035152;28;20028;-55
2024/03/19 00:04:10;;;;;;;11.93;5.47;;;10.40;99.90;;;;;;5035205;28;20033;-52
2024/03/19 00:06:36;;;;;;;9.23;4.80;;;10.40;99.90;;;;;;5054715;28;20036;-55
2024/03/19 00:09:03;;;;;;;14.25;5.13;;;10.40;99.90;;;;;;5054551;28;20492;-54
2024/03/19 00:11:28;;;;;;;14.20;5.30;;;10.40;99.90;;;;;;5054441;28;20041;-54
2024/03/19 00:13:54;;;;;;;11.38;4.93;;;10.50;99.90;;;;;;5054603;28;20078;-56
2024/03/19 00:16:20;;;;;;;11.15;4.82;;;10.50;99.90;;;;;;5054648;28;20020;-54
2024/03/19 00:18:45;;;;;;;17.83;4.50;;;10.50;99.90;;;;;;5054610;28;20028;-54
2024/03/19 00:21:11;;;;;;;7.75;4.13;;;10.60;99.90;;;;;;5054601;28;20435;-57
2024/03/19 00:23:37;;;;;;;12.10;4.25;;;10.60;99.90;;;;;;5054724;28;20025;-56
2024/03/19 00:26:05;;;;;;;13.00;4.35;;;10.60;99.90;;;;;;5054525;28;20036;-55
2024/03/19 00:28:31;;;;;;;9.25;4.15;;;10.60;99.90;;;;;;5054572;28;20044;-55
2024/03/19 00:30:57;;;;;;;11.13;3.88;;;10.70;99.90;;;;;;5052965;28;20465;-55
2024/03/19 00:33:22;;;;;;;10.20;3.95;;;10.70;99.90;;;;;;5054256;28;20036;-54
2024/03/19 00:35:48;;;;;;;9.98;4.13;;;10.70;99.90;;;;;;5054150;28;20540;-55
2024/03/19 00:38:14;;;;;;;8.18;4.07;;;10.70;99.90;;;;;;5053777;28;20086;-54
2024/03/19 00:40:40;;;;;;;7.80;3.90;;;10.80;99.90;;;;;;5054039;28;20108;-55
2024/03/19 00:43:07;;;;;;;11.35;5.40;;;10.80;99.90;;;;;;5054420;28;20044;-58
2024/03/19 00:45:33;;;;;;;13.50;5.43;;;10.80;99.90;;;;;;5054055;28;20505;-55
2024/03/19 00:47:59;;;;;;;9.38;4.60;;;10.80;99.90;;;;;;5054006;28;20040;-54
2024/03/19 00:50:25;;;;;;;10.05;3.70;;;10.80;99.90;;;;;;5054130;28;20366;-55
2024/03/19 00:52:51;;;;;;;8.63;4.75;;;10.80;99.90;;;;;;5053933;28;20025;-52
2024/03/19 00:55:17;;;;;;;8.43;4.05;;;10.80;99.90;;;;;;5053675;28;20493;-54
2024/03/19 00:57:43;;;;;;;12.75;4.88;;;10.80;99.90;;;;;;5053867;28;20477;-53
2024/03/19 01:00:11;;;;;;;10.60;4.25;;;10.80;99.90;;;;;;5053750;28;20324;-53
2024/03/19 01:02:38;;;;;;;13.88;4.47;;;10.80;99.90;;;;;;5053937;28;20048;-55
2024/03/19 01:05:08;;;;;;;12.77;4.07;;;10.90;99.90;;;;;;5053674;28;20021;-54
2024/03/19 01:07:44;;;;;;;14.13;4.57;;;10.90;99.90;;;;;;5053461;28;20028;-54
2024/03/19 01:10:11;;;;;;;8.23;4.20;;;10.90;99.90;;;;;;5051916;28;20086;-55
2024/03/19 01:12:38;;;;;;;12.65;5.03;;;10.90;99.90;;;;;;5053259;28;20409;-53
2024/03/19 01:15:05;;;;;;;7.83;3.83;;;10.90;99.90;;;;;;5053754;28;20432;-55
2024/03/19 01:17:39;;;;;;;6.85;3.80;;;10.90;99.90;;;;;;5053379;28;20533;-54
2024/03/19 01:20:09;;;;;;;14.30;4.32;;;10.90;99.90;;;;;;5053339;28;20040;-55
2024/03/19 01:22:37;;;;;;;9.75;3.75;;;11.00;99.90;;;;;;5053555;28;20100;-55
2024/03/19 01:25:03;;;;;;;9.82;4.53;;;11.00;99.90;;;;;;5053561;28;20036;-54
2024/03/19 01:27:29;;;;;;;8.73;3.42;;;11.00;99.90;;;;;;5053460;28;20032;-55
2024/03/19 01:29:55;;;;;;;6.88;3.85;;;11.00;99.90;;;;;;5047333;28;20501;-55
2024/03/19 01:32:20;;;;;;;10.73;3.88;;;11.00;99.90;;;;;;5053180;28;20029;-54
2024/03/19 01:34:46;;;;;;;8.10;3.58;;;11.00;99.90;;;;;;5051796;28;20493;-54
2024/03/19 01:37:11;;;;;;;7.32;3.65;;;11.00;99.90;;;;;;5053056;28;20029;-46
2024/03/19 01:39:37;;;;;;;4.35;3.40;;;11.00;99.90;;;;;;5052836;28;20021;-41
2024/03/19 01:42:03;;;;;;;11.38;3.75;;;11.10;99.90;;;;;;5052941;28;20497;-41
2024/03/19 01:44:28;;;;;;;6.93;3.10;;;11.10;99.90;;;;;;5052878;28;20029;-47
2024/03/19 01:46:54;;;;;;;5.95;2.85;;;11.20;99.90;;;;;;5052960;28;20112;-42
2024/03/19 01:49:20;;;;;;;9.25;3.60;;;11.20;99.90;;;;;;5052722;28;20124;-42
2024/03/19 01:51:46;;;;;;;6.10;3.40;;;11.30;99.90;;;;;;5052683;28;20028;-42
2024/03/19 01:54:13;;;;;;;11.82;3.78;;;11.30;99.90;;;;;;5053034;28;20044;-42
2024/03/19 01:56:40;;;;;;;12.93;4.05;;;11.30;99.90;;;;;;5052600;28;20044;-43
2024/03/19 01:59:05;;;;;;;6.80;3.72;;;11.40;99.90;;;;;;5052472;28;20044;-41
2024/03/19 02:01:31;;;;;;;8.00;3.45;;;11.40;99.90;;;;;;5052587;28;20053;-42
2024/03/19 02:03:58;;;;;;;8.43;3.95;;;11.40;99.90;;;;;;5051458;28;20374;-42
2024/03/19 02:06:23;;;;;;;4.75;3.30;;;11.30;99.90;;;;;;5051802;28;20036;-41
2024/03/19 02:09:06;;;;;;;8.30;3.70;;;11.30;99.90;;;;;;5052724;28;20025;-41
2024/03/19 02:11:33;;;;;;;18.98;3.88;;;11.30;99.90;;;;;;5052355;28;20091;-43
2024/03/19 02:14:04;;;;;;;6.75;3.63;;;11.30;99.90;;;;;;5052672;28;20039;-40
2024/03/19 02:16:30;;;;;;;5.47;3.60;;;11.30;99.90;;;;;;5052643;28;20515;-49
2024/03/19 02:19:04;;;;;;;10.50;3.78;;;11.30;99.90;;;;;;5052593;28;20112;-41
2024/03/19 02:21:32;;;;;;;7.28;3.60;;;11.30;99.90;;;;;;5051507;28;20440;-40
2024/03/19 02:23:58;;;;;;;10.40;4.30;;;11.20;99.90;;;;;;5052537;28;20461;-44
2024/03/19 02:26:29;;;;;;;10.98;4.30;;;11.30;99.90;;;;;;5052208;28;20034;-41
2024/03/19 02:28:59;;;;;;;6.97;4.20;;;11.30;99.90;;;;;;5052512;28;20040;-41
2024/03/19 02:31:27;;;;;;;9.48;4.25;;;11.30;99.90;;;;;;5052423;28;20175;-42
2024/03/19 02:33:53;;;;;;;6.95;3.60;;;11.30;99.90;;;;;;5052188;28;20481;-41
2024/03/19 02:36:19;;;;;;;8.75;4.78;;;11.30;99.90;;;;;;5052040;28;20044;-41
2024/03/19 02:38:44;;;;;;;8.82;4.00;;;11.20;99.90;;;;;;5051987;28;20033;-45
2024/03/19 02:41:10;;;;;;;6.50;4.13;;;11.20;99.90;;;;;;5052121;28;20025;-45
2024/03/19 02:43:37;;;;;;;8.27;4.18;;;11.30;99.90;;;;;;5052020;28;20037;-46
2024/03/19 02:46:03;;;;;;;11.60;4.30;;;11.30;99.90;;;;;;5052443;28;20478;-40
2024/03/19 02:48:28;;;;;;;7.43;4.43;;;11.30;99.90;;;;;;5050595;28;20033;-41
2024/03/19 02:50:54;;;;;;;10.57;4.65;;;11.30;99.90;;;;;;5052204;28;20044;-42
2024/03/19 02:53:22;;;;;;;7.53;4.22;;;11.30;99.90;;;;;;5052379;28;20397;-41
2024/03/19 02:55:48;;;;;;;12.18;4.68;;;11.30;99.90;;;;;;5051740;28;20116;-43
2024/03/19 02:58:16;;;;;;;9.82;3.92;;;11.30;99.90;;;;;;5041232;28;20084;-42
2024/03/19 03:00:42;;;;;;;14.40;4.90;;;11.30;99.90;;;;;;5032020;28;20057;-41
2024/03/19 03:03:08;;;;;;;8.40;4.03;;;11.40;99.90;;;;;;5031950;28;20060;-40
2024/03/19 03:05:34;;;;;;;7.85;4.57;;;11.30;99.90;;;;;;5032332;28;20378;-40
2024/03/19 03:07:59;;;;;;;10.10;4.97;;;11.30;99.90;;;;;;5032046;28;20026;-42
2024/03/19 03:10:25;;;;;;;10.50;3.45;;;11.30;99.90;;;;;;5032242;28;20543;-40
2024/03/19 03:12:51;;;;;;;9.57;4.22;;;11.30;99.90;;;;;;5046001;28;20426;-41
2024/03/19 03:15:16;;;;;;;8.27;3.70;;;11.30;99.90;;;;;;5051774;28;20504;-43
2024/03/19 03:17:42;;;;;;;4.65;3.17;;;11.30;99.90;;;;;;5051964;28;20025;-40
2024/03/19 03:20:11;;;;;;;8.63;3.88;;;11.30;99.90;;;;;;5052005;28;20070;-41
2024/03/19 03:22:37;;;;;;;8.38;3.58;;;11.30;99.90;;;;;;5051971;28;20489;-39
2024/03/19 03:25:08;;;;;;;7.60;3.53;;;11.40;99.90;;;;;;5052007;28;20478;-41
2024/03/19 03:27:34;;;;;;;5.38;2.70;;;11.40;99.90;;;;;;5051897;28;20484;-39
2024/03/19 03:30:00;;;;;;;5.30;2.83;;;11.40;99.90;;;;;;5051602;28;20036;-46
2024/03/19 03:32:27;;;;;;;3.67;3.13;;;11.50;99.90;;;;;;5053572;28;20040;-46
2024/03/19 03:34:52;;;;;;;9.77;2.97;;;11.50;99.90;;;;;;5055651;28;20478;-40
2024/03/19 03:37:19;;;;;;;8.27;3.40;;;11.50;99.90;;;;;;5055196;28;20029;-42
2024/03/19 03:39:44;;;;;;;10.60;3.17;;;11.50;99.90;;;;;;5055452;28;20533;-41
2024/03/19 03:42:10;;;;;;;11.60;3.58;;;11.50;99.90;;;;;;5055182;28;20059;-42
2024/03/19 03:44:36;;;;;;;10.90;2.90;;;11.50;99.90;;;;;;5055138;28;20112;-41
2024/03/19 03:47:03;;;;;;;6.40;3.00;;;11.50;99.90;;;;;;5055106;28;20537;-39
2024/03/19 03:49:29;;;;;;;6.80;2.88;;;11.50;99.90;;;;;;5055274;28;20028;-40
2024/03/19 03:51:55;;;;;;;7.22;3.00;;;11.50;99.90;;;;;;5053433;28;20454;-43
2024/03/19 03:54:20;;;;;;;6.15;3.35;;;11.60;99.90;;;;;;5055371;28;20040;-39
2024/03/19 03:56:47;;;;;;;8.00;3.38;;;11.60;99.90;;;;;;5055259;28;20028;-54
2024/03/19 03:59:13;;;;;;;10.02;3.47;;;11.60;99.90;;;;;;5036095;28;20025;-53
2024/03/19 04:01:39;;;;;;;6.68;3.90;;;11.60;99.90;;;;;;5033558;28;20445;-54
2024/03/19 04:04:05;;;;;;;8.02;3.40;;;11.60;99.90;;;;;;5051382;28;20495;-56
2024/03/19 04:06:31;;;;;;;6.20;3.78;;;11.50;99.90;;;;;;5054773;28;20032;-53
2024/03/19 04:08:56;;;;;;;10.77;3.65;;;11.50;99.90;;;;;;5054987;28;20029;-54
2024/03/19 04:11:22;;;;;;;11.85;3.67;;;11.60;99.90;;;;;;5054479;28;20588;-55
2024/03/19 04:13:48;;;;;;;5.25;4.00;;;11.60;99.90;;;;;;5054885;28;20489;-54
2024/03/19 04:16:14;;;;;;;8.30;3.72;;;11.50;99.90;;;;;;5054817;28;20029;-55
2024/03/19 04:18:39;;;;;;;6.40;3.53;;;11.50;99.90;;;;;;5054767;28;20025;-55
2024/03/19 04:21:05;;;;;;;10.27;4.05;;;11.50;99.90;;;;;;5054386;28;20104;-50
2024/03/19 04:23:31;;;;;;;9.80;3.90;;;11.50;99.90;;;;;;5048483;28;20101;-59
2024/03/19 04:25:57;;;;;;;11.68;4.10;;;11.50;99.90;;;;;;5034511;28;20047;-54
2024/03/19 04:28:22;;;;;;;12.57;3.80;;;11.50;99.90;;;;;;5034422;28;20053;-55
2024/03/19 04:30:48;;;;;;;11.85;3.50;;;11.60;99.90;;;;;;5034374;28;20117;-54
2024/03/19 04:33:13;;;;;;;8.18;3.97;;;11.60;99.90;;;;;;5034625;28;20449;-54
2024/03/19 04:35:40;;;;;;;8.13;3.80;;;11.60;99.90;;;;;;5034238;28;20120;-54
2024/03/19 04:38:05;;;;;;;7.47;4.03;;;11.60;99.90;;;;;;5050991;28;20020;-56
2024/03/19 04:40:32;;;;;;;6.10;3.35;;;11.60;99.90;;;;;;5054013;28;20454;-54
2024/03/19 04:42:57;;;;;;;5.50;3.38;;;11.60;99.90;;;;;;5052316;28;20505;-51
2024/03/19 04:45:23;;;;;;;7.28;3.47;;;11.60;99.90;;;;;;5053613;28;20056;-53
2024/03/19 04:47:49;;;;;;;9.02;3.78;;;11.60;99.90;;;;;;5053960;28;20496;-53
2024/03/19 04:50:14;;;;;;;8.10;3.38;;;11.60;99.90;;;;;;5053868;28;20512;-52
2024/03/19 04:52:40;;;;;;;7.25;3.20;;;11.60;99.90;;;;;;5053923;28;20439;-54
2024/03/19 04:55:07;;;;;;;7.22;3.15;;;11.60;99.90;;;;;;5053757;28;20557;-54
2024/03/19 04:57:33;;;;;;;10.13;4.32;;;11.60;99.90;;;;;;5053773;28;20025;-55
2024/03/19 04:59:59;;;;;;;4.78;2.97;;;11.60;99.90;;;;;;5053734;28;20029;-53
2024/03/19 05:02:24;;;;;;;6.97;3.65;;;11.60;99.90;;;;;;5053729;28;20029;-54
2024/03/19 05:04:50;;;;;;;11.88;3.35;;;11.70;99.90;;;;;;5053624;28;20078;-53
2024/03/19 05:07:15;;;;;;;9.23;4.00;;;11.60;99.90;;;;;;5053764;28;20025;-54
2024/03/19 05:09:41;;;;;;;5.22;3.40;;;11.60;99.90;;;;;;5053571;28;20473;-53
2024/03/19 05:12:07;;;;;;;10.43;4.05;;;11.60;99.90;;;;;;5053244;28;20127;-54
2024/03/19 05:14:32;;;;;;;5.05;3.08;;;11.60;99.90;;;;;;5053492;28;20063;-54
2024/03/19 05:16:58;;;;;;;10.63;3.35;;;11.60;99.90;;;;;;5052178;28;20037;-49
2024/03/19 05:19:24;;;;;;;10.77;3.03;;;11.60;99.90;;;;;;5053658;28;20075;-53
2024/03/19 05:21:49;;;;;;;8.00;4.05;;;11.60;99.90;;;;;;5053291;28;20450;-54
2024/03/19 05:24:15;;;;;;;6.88;3.50;;;11.60;99.90;;;;;;5053367;28;20401;-55
2024/03/19 05:26:41;;;;;;;5.60;2.70;;;11.60;99.90;;;;;;5051920;28;20032;-50
2024/03/19 05:29:07;;;;;;;6.30;3.17;;;11.70;99.90;;;;;;5052938;28;20044;-53
2024/03/19 05:31:33;;;;;;;5.93;3.28;;;11.70;99.90;;;;;;5053384;28;20497;-54
2024/03/19 05:33:59;;;;;;;9.43;3.30;;;11.60;99.90;;;;;;5053367;28;20066;-52
2024/03/19 05:36:25;;;;;;;7.72;2.78;;;11.60;99.90;;;;;;5053088;28;20033;-54
2024/03/19 05:38:50;;;;;;;4.78;3.38;;;11.60;99.90;;;;;;5052945;28;20086;-54
2024/03/19 05:41:16;;;;;;;9.20;4.10;;;11.60;99.90;;;;;;5052791;28;20054;-54
2024/03/19 05:43:44;;;;;;;12.43;3.75;;;11.60;99.90;;;;;;5053190;28;20474;-53
2024/03/19 05:46:10;;;;;;;8.47;3.47;;;11.60;99.90;;;;;;5052797;28;20037;-51
2024/03/19 05:48:37;;;;;;;5.18;3.08;;;11.60;99.90;;;;;;5052807;28;20032;-54
2024/03/19 05:51:04;;;;;;;8.83;3.37;;;11.60;99.90;;;;;;5052799;28;20033;-53
2024/03/19 05:53:30;;;;;;;10.20;3.80;;;11.60;99.90;;;;;;5052757;28;20099;-53
2024/03/19 05:55:57;;;;;;;6.38;4.07;;;11.60;99.90;;;;;;5052646;28;20032;-52
2024/03/19 05:58:23;;;;;;;8.65;3.50;;;11.70;99.90;;;;;;5052727;28;20424;-54
2024/03/19 06:00:49;;;;;;;8.70;4.38;;;11.60;99.90;;;;;;5052624;28;20066;-54
2024/03/19 06:03:15;;;;;;;7.38;3.38;;;11.70;99.90;;;;;;5052738;28;20028;-53
2024/03/19 06:05:41;;;;;;;7.05;3.10;;;11.70;99.90;;;;;;5052541;28;20024;-51
2024/03/19 06:08:07;;;;;;;12.30;3.33;;;11.70;99.90;;;;;;5052515;28;20537;-54
2024/03/19 06:10:32;;;;;;;6.28;3.35;;;11.70;99.90;;;;;;5052699;28;20488;-53
2024/03/19 06:12:58;;;;;;;6.65;3.15;;;11.70;99.90;;;;;;5052319;28;20044;-55
2024/03/19 06:15:24;;;;;;;5.18;2.95;;;11.70;99.90;;;;;;5052604;28;20070;-54
2024/03/19 06:17:50;;;;;;;8.95;3.40;;;11.70;99.90;;;;;;5052355;28;20029;-54
2024/03/19 06:20:17;;;;;;;5.40;3.40;;;11.80;99.90;;;;;;5051822;28;20419;-55
2024/03/19 06:22:44;;;;;;;8.30;3.58;;;11.80;99.90;;;;;;5052571;28;20029;-52
2024/03/19 06:25:10;;;;;;;9.65;3.65;;;11.80;99.90;;;;;;5051030;28;20037;-54
2024/03/19 06:27:38;;;;;;;12.75;3.92;;;11.80;99.90;;;;;;5052502;28;20033;-55
2024/03/19 06:30:05;;;;;;;4.35;3.42;;;11.80;99.90;;;;;;5052283;28;20020;-53
2024/03/19 06:32:31;;;;;;;10.73;3.60;;;11.90;99.90;;;;;;5052470;28;20323;-51
2024/03/19 06:34:56;;;;;;;6.53;3.25;;;11.90;99.90;;;;;;5052177;28;20100;-55
2024/03/19 06:37:22;;;;;;;5.18;3.22;;;11.90;99.90;;;;;;5051825;28;20116;-53
2024/03/19 06:39:47;;;;;;;14.88;4.85;;;11.90;99.90;;;;;;5052006;28;20021;-53
2024/03/19 06:42:13;;;;;;;5.95;3.63;;;11.90;99.90;;;;;;5052219;28;20371;-53
2024/03/19 06:44:39;;;;;;;9.85;3.65;;;11.90;99.90;;;;;;5052070;28;20025;-54
2024/03/19 06:47:05;;;;;;;4.65;3.28;;;11.90;99.90;;;;;;5052062;28;20426;-55
2024/03/19 06:49:30;;;;;;;7.40;3.78;;;11.90;99.90;;;;;;5051993;28;20025;-55
2024/03/19 06:51:56;;;;;;;5.82;3.50;;;11.90;99.90;;;;;;5051841;28;20036;-55
2024/03/19 06:54:21;;;;;;;8.23;3.90;;;11.90;99.90;;;;;;5051798;28;20029;-52
2024/03/19 06:56:47;;;;;;;6.03;3.08;;;12.00;99.90;;;;;;5051887;28;20497;-54
2024/03/19 06:59:15;;;;;;;15.73;4.05;;;12.00;99.90;;;;;;5051956;28;20131;-54
2024/03/19 07:01:40;;;;;;;;;;;12.00;99.90;;;;;;5039270;28;20051;-55
2024/03/19 07:04:06;;;;;;;8.63;3.35;;;12.10;99.90;;;;;;5031855;28;19995;-55
2024/03/19 07:06:35;;;;;;;6.22;3.65;;;12.10;99.90;;;;;;5032211;28;20041;-52
2024/03/19 07:09:00;;;;;;;13.05;4.28;;;12.10;99.90;;;;;;5035933;28;20030;-55
2024/03/19 07:11:29;;;;;;;5.38;2.92;;;12.10;99.90;;;;;;5054749;28;20045;-55
2024/03/19 07:13:55;;;;;;;9.35;4.63;;;12.10;99.90;;;;;;5055675;28;20037;-54
2024/03/19 07:16:20;;;;;;;4.68;3.05;;;12.10;99.90;;;;;;5055604;28;20029;-55
2024/03/19 07:18:47;;;;;;;6.95;3.13;;;12.20;99.90;;;;;;5035711;28;20029;-54
2024/03/19 07:21:13;;;;;;;7.05;2.70;;;12.30;99.90;;;;;;5035574;28;20022;-51
2024/03/19 07:23:38;;;;;;;11.23;3.42;;;12.30;99.90;;;;;;5035590;28;20112;-55
2024/03/19 07:26:04;;;;;;;6.35;2.88;;;12.40;99.90;;;;;;5035531;28;20116;-54
2024/03/19 07:28:30;;;;;;;10.48;3.35;;;12.40;99.90;;;;;;5055212;28;20028;-55
2024/03/19 07:30:57;;;;;;;5.78;2.45;;;12.40;99.90;;;;;;5055406;28;20028;-54
2024/03/19 07:33:23;;;;;;;3.72;3.10;;;12.50;99.90;;;;;;5055717;28;20400;-51
2024/03/19 07:35:49;;;;;;;7.85;2.20;;;12.60;99.90;;;;;;5053968;28;20037;-55
2024/03/19 07:38:14;;;;;;;3.55;2.22;;;12.70;99.90;;;;;;5055370;28;20064;-54
2024/03/19 07:40:40;;;;;;;3.53;2.47;;;12.70;99.90;;;;;;5053932;28;20037;-56
2024/03/19 07:43:05;;;;;;;6.72;1.88;;;12.80;99.90;;;;;;5053701;28;20029;-53
2024/03/19 07:45:31;;;;;;;4.65;1.65;;;12.80;99.90;;;;;;5055137;28;20036;-55
2024/03/19 07:47:58;;;;;;;3.50;1.98;;;12.70;99.90;;;;;;5055123;28;20485;-55
2024/03/19 07:50:28;;;;;;;4.30;2.35;;;12.80;99.90;;;;;;5054961;28;20064;-50
2024/03/19 07:52:55;;;;;;;4.93;1.80;;;12.90;99.90;;;;;;5055025;28;20052;-55
2024/03/19 07:55:21;;;;;;;8.77;2.33;;;12.90;99.90;;;;;;5053722;28;20029;-55
2024/03/19 07:57:47;;;;;;;7.15;2.38;;;12.90;99.90;;;;;;5054866;28;20419;-55
2024/03/19 08:00:14;;;;;;;4.70;1.80;;;13.00;99.90;;;;;;5054794;28;20100;-55
2024/03/19 08:02:40;;;;;;;2.80;1.23;;;12.90;99.90;;;;;;5054740;28;20032;-61
2024/03/19 08:05:09;;;;;;;5.53;1.83;;;12.90;99.90;;;;;;5055038;28;20031;-55
2024/03/19 08:07:40;;;;;;;2.40;1.50;;;12.90;99.90;;;;;;5055084;28;20478;-53
2024/03/19 08:10:06;;;;;;;8.75;2.50;;;12.90;99.90;;;;;;5055091;28;20071;-55
2024/03/19 08:12:33;;;;;;;7.10;2.05;;;13.00;99.90;;;;;;5054317;28;20052;-55
2024/03/19 08:15:02;;;;;;;7.03;1.73;;;13.00;99.90;;;;;;5054682;28;20426;-56
2024/03/19 08:17:28;;;;;;;8.93;1.80;;;13.10;99.90;;;;;;5052907;28;20071;-55
2024/03/19 08:19:55;;;;;;;4.90;2.30;;;13.20;99.90;;;;;;5053665;28;20033;-52
2024/03/19 08:22:20;;;;;;;5.38;1.85;;;13.30;99.90;;;;;;5054552;28;20032;-56
2024/03/19 08:24:49;;;;;;;2.25;1.63;;;13.30;99.90;;;;;;5054445;28;20017;-56
2024/03/19 08:27:18;;;;;;;7.10;2.22;;;13.30;99.90;;;;;;5054392;28;20045;-54
2024/03/19 08:29:43;;;;;;;3.65;1.60;;;13.30;99.90;;;;;;5054647;28;20024;-55
2024/03/19 08:32:09;;;;;;;4.72;1.63;;;13.40;99.90;;;;;;5054407;28;20040;-55
2024/03/19 08:34:35;;;;;;;6.28;1.80;;;13.50;99.90;;;;;;5054193;28;20025;-51
2024/03/19 08:37:02;;;;;;;3.75;1.05;;;13.50;99.90;;;;;;5052947;28;20342;-54
2024/03/19 08:39:28;;;;;;;3.50;1.90;;;13.60;99.90;;;;;;5054294;28;20158;-56
2024/03/19 08:41:53;;;;;;;4.30;1.38;;;13.60;99.90;;;;;;5054043;28;20099;-57
2024/03/19 08:44:20;;;;;;;2.00;1.25;;;13.70;99.90;;;;;;5052724;28;20115;-55
2024/03/19 08:46:46;;;;;;;3.42;1.40;;;13.80;99.90;;;;;;5045938;28;20040;-56
2024/03/19 08:49:12;;;;;;;2.47;1.45;;;13.90;99.90;;;;;;5050729;28;20025;-54
2024/03/19 08:51:37;;;;;;;5.95;1.40;;;14.00;99.90;;;;;;5051422;28;20028;-54
2024/03/19 08:54:04;;;;;;;2.33;1.40;;;14.10;99.90;;;;;;5054129;28;20075;-55
2024/03/19 08:56:32;;;;;;;4.00;1.80;;;14.10;99.90;;;;;;5053764;28;20032;-55
2024/03/19 08:58:58;;;;;;;2.40;1.70;;;14.20;99.90;;;;;;5053940;28;20485;-51
2024/03/19 09:01:24;;;;;;;7.80;1.50;;;14.20;99.90;;;;;;5053682;28;20095;-55
2024/03/19 09:03:51;;;;;;;3.22;1.52;;;14.20;99.90;;;;;;5053110;28;20029;-55
2024/03/19 09:06:18;;;;;;;2.88;1.50;;;14.20;99.90;;;;;;5053735;28;20031;-54
2024/03/19 09:08:43;;;;;;;4.18;1.73;;;14.10;99.90;;;;;;5053271;28;20051;-56
2024/03/19 09:11:10;;;;;;;3.20;1.65;;;14.00;99.90;;;;;;5052201;28;20436;-54
2024/03/19 09:13:35;;;;;;;2.05;1.75;;;14.10;99.90;;;;;;5053510;28;20028;-54
2024/03/19 09:16:02;;;;;;;2.97;1.67;;;14.10;99.90;;;;;;5053406;28;20037;-55
2024/03/19 09:18:27;;;;;;;1.75;1.33;;;14.10;99.90;;;;;;5053715;28;20104;-55
2024/03/19 09:20:53;;;;;;;3.42;1.10;;;14.10;99.90;;;;;;5053618;28;20049;-54
2024/03/19 09:23:19;;;;;;;3.85;1.77;;;14.10;99.90;;;;;;5051589;28;20064;-53
2024/03/19 09:25:45;;;;;;;2.55;1.42;;;14.10;99.90;;;;;;5053062;28;20552;-55
2024/03/19 09:28:10;;;;;;;2.88;1.98;;;14.10;99.90;;;;;;5052013;28;20039;-54
2024/03/19 09:30:37;;;;;;;5.72;1.70;;;14.20;99.90;;;;;;5053188;28;20032;-55
2024/03/19 09:33:04;;;;;;;3.60;1.30;;;14.20;99.90;;;;;;5053370;28;20028;-51
2024/03/19 09:35:29;;;;;;;3.72;1.50;;;14.20;99.90;;;;;;5053130;28;20020;-54
2024/03/19 09:37:57;;;;;;;4.03;2.08;;;14.30;99.90;;;;;;5052904;28;20031;-52
2024/03/19 09:40:23;;;;;;;17.55;3.28;;;14.50;99.90;;;;;;5052191;28;20025;-55
2024/03/19 09:42:48;;;;;;;6.43;2.20;;;14.60;99.90;;;;;;5050388;28;20024;-55
2024/03/19 09:45:27;;;;;;;3.35;1.85;;;14.70;99.90;;;;;;5038084;28;20036;-52
2024/03/19 09:47:55;;;;;;;7.75;2.05;;;14.80;99.90;;;;;;5053045;28;20029;-54
2024/03/19 09:50:21;;;;;;;2.35;2.15;;;14.90;99.90;;;;;;5053103;28;20033;-56
2024/03/19 09:52:50;;;;;;;10.38;2.50;;;14.90;99.90;;;;;;5052764;28;20032;-52
2024/03/19 09:55:17;;;;;;;2.53;1.65;;;15.10;99.90;;;;;;5052802;28;20508;-55
2024/03/19 09:57:47;;;;;;;6.35;2.22;;;15.20;99.90;;;;;;5052664;28;20091;-57
2024/03/19 10:00:35;;;;;;;10.45;4.05;;;15.30;99.90;;;;;;5052670;28;20478;-54
2024/03/19 10:03:01;;;;;;;8.15;2.85;;;15.30;99.90;;;;;;5052630;28;20112;-53
2024/03/19 10:05:27;;;;;;;4.78;2.28;;;15.40;99.90;;;;;;5050931;28;20045;-53
2024/03/19 10:07:53;;;;;;;7.00;2.15;;;15.30;99.90;;;;;;5052559;28;20025;-52
2024/03/19 10:10:20;;;;;;;10.55;2.33;;;15.30;99.90;;;;;;5052747;28;20500;-55
2024/03/19 10:12:46;;;;;;;9.70;2.95;;;15.30;99.90;;;;;;5052244;28;20041;-54
2024/03/19 10:15:20;;;;;;;8.23;2.63;;;15.40;99.90;;;;;;5035467;28;20033;-55
2024/03/19 10:17:47;;;;;;;5.55;2.63;;;15.50;99.90;;;;;;5045964;28;20115;-54
2024/03/19 10:20:14;;;;;;;;;;;15.70;99.90;;;;;;5052852;28;20063;-55
2024/03/19 10:22:41;;;;;;;7.18;3.00;;;15.80;99.90;;;;;;5052144;28;19963;-55
2024/03/19 10:25:07;;;;;;;12.77;2.63;;;16.00;99.90;;;;;;5050926;28;20025;-54
2024/03/19 10:27:34;;;;;;;6.85;2.67;;;16.10;99.90;;;;;;5052219;28;20397;-54
2024/03/19 10:30:02;;;;;;;4.53;1.92;;;16.40;99.90;;;;;;5052178;28;20028;-54
2024/03/19 10:32:28;;;;;;;;;;;16.60;99.90;;;;;;5052853;28;20098;-55
2024/03/19 10:34:56;;;;;;;7.43;2.67;;;16.80;99.90;;;;;;5052063;28;19909;-55
2024/03/19 10:37:23;;;;;;;11.50;3.10;;;16.90;99.90;;;;;;5050742;28;20057;-56
2024/03/19 10:39:49;;;;;;;10.23;2.30;;;17.00;99.90;;;;;;5051993;28;20041;-55
2024/03/19 10:42:15;;;;;;;5.32;2.33;;;17.10;99.90;;;;;;5051556;28;20017;-54
2024/03/19 10:44:44;;;;;;;7.32;2.38;;;17.20;99.90;;;;;;5051962;28;20025;-55
2024/03/19 10:47:13;;;;;;;9.95;2.03;;;17.20;99.90;;;;;;5052060;28;20067;-54
2024/03/19 10:49:39;;;;;;;9.23;1.63;;;17.30;99.90;;;;;;5038600;28;20037;-55
2024/03/19 10:52:23;;;;;;;8.00;1.63;;;17.40;99.90;;;;;;5049671;28;20036;-54
2024/03/19 10:54:51;;;;;;;4.30;1.45;;;17.50;99.90;;;;;;5052154;28;20543;-55
2024/03/19 10:57:18;;;;;;;7.10;1.08;;;17.60;99.90;;;;;;5051919;28;20036;-47
2024/03/19 10:59:44;;;;;;;1.40;1.00;;;17.70;99.90;;;;;;5051502;28;20496;-44
2024/03/19 11:02:20;;;;;;;2.25;0.70;;;17.80;99.90;;;;;;5051735;28;20063;-43
2024/03/19 11:04:56;;;;;;;8.07;1.20;;;17.90;99.90;;;;;;5051722;28;20017;-41
2024/03/19 11:07:26;;;;;;;2.70;1.17;;;18.00;99.90;;;;;;5053120;28;20419;-42
2024/03/19 11:09:53;;;;;;;2.78;0.90;;;18.10;99.90;;;;;;5033590;28;20419;-40
2024/03/19 11:12:24;;;;;;;1.85;1.13;;;18.40;99.90;;;;;;5048072;28;20497;-43
2024/03/19 11:14:59;;;;;;;6.50;1.67;;;18.50;99.90;;;;;;5048767;28;20029;-44
2024/03/19 11:17:27;;;;;;;6.78;1.52;;;18.60;99.90;;;;;;5050828;28;20426;-44
2024/03/19 11:19:54;;;;;;;4.68;1.25;;;18.50;99.90;;;;;;5050184;28;20068;-42
2024/03/19 11:22:20;;;;;;;2.60;1.25;;;18.20;99.90;;;;;;5051051;28;20371;-42
2024/03/19 11:24:50;;;;;;;8.27;2.15;;;18.00;99.90;;;;;;5050308;28;20101;-50
2024/03/19 11:27:20;;;;;;;6.57;1.63;;;17.90;99.90;;;;;;5051372;28;20078;-42
2024/03/19 11:29:48;;;;;;;6.97;1.15;;;17.90;99.90;;;;;;5051050;28;20376;-42
2024/03/19 11:32:23;;;;;;;;;;;17.90;99.90;;;;;;5049086;28;20029;-41
2024/03/19 11:34:51;;;;;;;9.88;1.50;;;18.00;99.90;;;;;;5051640;28;20416;-42
2024/03/19 11:37:17;;;;;;;3.97;1.55;;;17.90;99.90;;;;;;5050337;28;20028;-40
2024/03/19 11:39:42;;;;;;;3.63;1.55;;;17.80;99.90;;;;;;5051137;28;20029;-41
2024/03/19 11:42:10;;;;;;;7.28;1.40;;;17.70;99.90;;;;;;5050870;28;20100;-40
2024/03/19 11:44:36;;;;;;;9.50;1.70;;;17.70;99.90;;;;;;5051527;28;20028;-41
2024/03/19 11:47:02;;;;;;;4.97;1.27;;;17.70;99.90;;;;;;5051472;28;20103;-41
2024/03/19 11:49:29;;;;;;;4.85;1.55;;;17.70;99.90;;;;;;5051715;28;20036;-42
2024/03/19 11:52:04;;;;;;;5.13;1.58;;;17.70;99.90;;;;;;5051422;28;20109;-48
2024/03/19 11:54:35;;;;;;;12.25;3.25;;;18.00;99.90;;;;;;5054752;28;20051;-43
2024/03/19 11:57:01;;;;;;;2.85;1.30;;;18.20;99.90;;;;;;5055131;28;20535;-43
2024/03/19 11:59:28;;;;;;;4.32;1.48;;;18.40;99.90;;;;;;5055018;28;20104;-41
2024/03/19 12:01:56;;;;;;;4.57;1.67;;;18.40;99.90;;;;;;5055089;28;20539;-42
2024/03/19 12:04:23;;;;;;;6.10;1.25;;;18.30;99.90;;;;;;5054705;28;20497;-40
2024/03/19 12:06:50;;;;;;;5.30;1.20;;;18.10;99.90;;;;;;5054867;28;20021;-49
2024/03/19 12:09:17;;;;;;;4.60;1.73;;;17.90;99.90;;;;;;5054809;28;20291;-57
2024/03/19 12:11:48;;;;;;;4.63;1.40;;;17.80;99.90;;;;;;5052932;28;20044;-55
2024/03/19 12:14:15;;;;;;;4.25;1.08;;;17.70;99.90;;;;;;5054593;28;20071;-55
2024/03/19 12:16:47;;;;;;;3.90;1.80;;;17.60;99.90;;;;;;5054588;28;20033;-55
2024/03/19 12:19:14;;;;;;;8.68;1.80;;;17.30;99.90;;;;;;5054762;28;20028;-54
2024/03/19 12:21:44;;;;;;;;;;;17.30;99.90;;;;;;5054944;28;20086;-54
2024/03/19 12:24:13;;;;;;;8.63;1.77;;;17.30;99.90;;;;;;5054525;28;19958;-55
2024/03/19 12:26:43;;;;;;;6.00;1.40;;;17.50;99.90;;;;;;5054376;28;20093;-54
2024/03/19 12:29:29;;;;;;;7.60;2.38;;;17.70;99.90;;;;;;5054615;28;20025;-55
2024/03/19 12:32:14;;;;;;;7.63;1.85;;;17.90;99.90;;;;;;5053921;28;20512;-55
2024/03/19 12:37:14;;;;;;;11.48;1.92;;;18.30;99.90;;;;;;5054330;28;20040;-55
2024/03/19 12:39:40;;;;;;;7.50;1.67;;;18.50;99.90;;;;;;5054345;28;20483;-55
2024/03/19 12:42:09;;;;;;;16.65;1.95;;;18.50;99.90;;;;;;5053988;28;20025;-55
2024/03/19 12:44:37;;;;;;;6.10;2.28;;;18.40;99.90;;;;;;5054318;28;20505;-56
2024/03/19 12:47:04;;;;;;;11.10;1.90;;;18.50;99.90;;;;;;5054207;28;20497;-54